createdAt,value
2022-08-01T00:00:30.357Z,1006.95
2022-08-01T00:01:30.283Z,1006.91
2022-08-01T00:02:30.481Z,1006.91
2022-08-01T00:03:30.259Z,1006.90
2022-08-01T00:04:30.302Z,1006.85
2022-08-01T00:05:30.239Z,1006.89
2022-08-01T00:06:30.231Z,1006.89
2022-08-01T00:07:30.215Z,1006.92
2022-08-01T00:08:30.203Z,1006.95
2022-08-01T00:09:30.199Z,1006.89
2022-08-01T00:10:30.201Z,1006.89
2022-08-01T00:11:30.171Z,1006.87
2022-08-01T00:12:30.161Z,1006.91
2022-08-01T00:13:30.148Z,1006.87
2022-08-01T00:14:32.426Z,1006.93
2022-08-01T00:15:30.134Z,1006.94
2022-08-01T00:16:30.164Z,1006.92
2022-08-01T00:17:30.118Z,1006.96
2022-08-01T00:18:30.092Z,1006.99
2022-08-01T00:19:30.092Z,1006.99
2022-08-01T00:20:30.072Z,1007.01
2022-08-01T00:21:30.114Z,1007.04
2022-08-01T00:22:30.052Z,1007.06
2022-08-01T00:23:30.038Z,1007.06
2022-08-01T00:24:30.043Z,1007.03
2022-08-01T00:25:33.806Z,1007.13
2022-08-01T00:26:30.004Z,1007.12
2022-08-01T00:27:29.997Z,1007.12
2022-08-01T00:28:29.998Z,1007.05
2022-08-01T00:30:12.695Z,1007.12
2022-08-01T00:30:30.960Z,1007.07
2022-08-01T00:31:29.949Z,1007.14
2022-08-01T00:32:29.937Z,1007.09
2022-08-01T00:33:29.927Z,1007.08
2022-08-01T00:34:30.266Z,1007.07
2022-08-01T00:35:29.902Z,1007.02
2022-08-01T00:36:29.895Z,1007.02
2022-08-01T00:37:29.899Z,1006.95
2022-08-01T00:38:30.095Z,1006.99
2022-08-01T00:39:29.873Z,1007.06
2022-08-01T00:40:29.850Z,1007.10
2022-08-01T00:41:29.838Z,1007.09
2022-08-01T00:42:29.828Z,1007.09
2022-08-01T00:43:29.817Z,1007.07
2022-08-01T00:44:29.820Z,1007.09
2022-08-01T00:45:29.793Z,1007.13
2022-08-01T00:46:29.785Z,1007.11
2022-08-01T00:47:29.771Z,1007.14
2022-08-01T00:48:29.763Z,1007.05
2022-08-01T00:49:29.856Z,1007.08
2022-08-01T00:50:29.749Z,1007.10
2022-08-01T00:51:29.729Z,1007.11
2022-08-01T00:52:29.715Z,1007.10
2022-08-01T00:53:51.059Z,1007.05
2022-08-01T00:54:30.732Z,1007.05
2022-08-01T00:55:29.685Z,1007.07
2022-08-01T00:56:29.672Z,1007.02
2022-08-01T00:58:02.232Z,1007.07
2022-08-01T00:58:30.645Z,1007.04
2022-08-01T00:59:29.638Z,1007.04
2022-08-01T01:00:29.686Z,1007.04
2022-08-01T01:01:39.277Z,1007.01
2022-08-01T01:02:30.612Z,1006.99
2022-08-01T01:03:56.227Z,1007.02
2022-08-01T01:04:30.582Z,1006.97
2022-08-01T01:05:29.585Z,1007.00
2022-08-01T01:06:29.563Z,1006.97
2022-08-01T01:07:29.549Z,1006.93
2022-08-01T01:08:29.539Z,1006.90
2022-08-01T01:09:29.544Z,1006.89
2022-08-01T01:10:29.520Z,1006.89
2022-08-01T01:11:29.507Z,1006.86
2022-08-01T01:12:29.622Z,1006.85
2022-08-01T01:13:29.486Z,1006.85
2022-08-01T01:14:29.493Z,1006.84
2022-08-01T01:15:29.458Z,1006.83
2022-08-01T01:16:29.445Z,1006.80
2022-08-01T01:17:49.735Z,1006.86
2022-08-01T01:18:30.606Z,1006.87
2022-08-01T01:19:29.411Z,1006.85
2022-08-01T01:20:29.405Z,1006.87
2022-08-01T01:21:29.396Z,1006.85
2022-08-01T01:22:29.415Z,1006.89
2022-08-01T01:23:29.371Z,1006.81
2022-08-01T01:24:29.357Z,1006.85
2022-08-01T01:25:29.347Z,1006.89
2022-08-01T01:26:29.346Z,1006.87
2022-08-01T01:27:29.327Z,1006.87
2022-08-01T01:28:29.330Z,1006.86
2022-08-01T01:29:29.366Z,1006.84
2022-08-01T01:30:29.292Z,1006.85
2022-08-01T01:31:29.276Z,1006.84
2022-08-01T01:32:30.885Z,1006.83
2022-08-01T01:33:29.277Z,1006.87
2022-08-01T01:34:29.248Z,1006.86
2022-08-01T01:35:29.257Z,1006.83
2022-08-01T01:36:29.232Z,1006.82
2022-08-01T01:37:29.216Z,1006.85
2022-08-01T01:38:29.227Z,1006.82
2022-08-01T01:39:29.192Z,1006.77
2022-08-01T01:40:29.237Z,1006.80
2022-08-01T01:41:29.169Z,1006.80
2022-08-01T01:42:29.338Z,1006.77
2022-08-01T01:43:33.772Z,1006.75
2022-08-01T01:44:29.154Z,1006.77
2022-08-01T01:45:29.127Z,1006.73
2022-08-01T01:46:29.135Z,1006.71
2022-08-01T01:47:29.108Z,1006.73
2022-08-01T01:48:29.203Z,1006.71
2022-08-01T01:49:29.167Z,1006.72
2022-08-01T01:50:29.088Z,1006.68
2022-08-01T01:51:29.098Z,1006.70
2022-08-01T01:52:29.051Z,1006.71
2022-08-01T01:53:29.040Z,1006.71
2022-08-01T01:54:29.037Z,1006.72
2022-08-01T01:55:29.017Z,1006.69
2022-08-01T01:56:29.014Z,1006.69
2022-08-01T01:57:28.999Z,1006.74
2022-08-01T01:58:28.983Z,1006.75
2022-08-01T01:59:28.983Z,1006.75
2022-08-01T02:00:28.962Z,1006.78
2022-08-01T02:01:58.620Z,1006.78
2022-08-01T02:02:30.052Z,1006.80
2022-08-01T02:03:28.976Z,1006.78
2022-08-01T02:04:28.919Z,1006.78
2022-08-01T02:05:28.919Z,1006.79
2022-08-01T02:06:28.908Z,1006.77
2022-08-01T02:07:28.880Z,1006.79
2022-08-01T02:08:28.868Z,1006.77
2022-08-01T02:09:37.738Z,1006.77
2022-08-01T02:10:28.940Z,1006.83
2022-08-01T02:11:28.851Z,1006.80
2022-08-01T02:12:28.825Z,1006.80
2022-08-01T02:13:28.810Z,1006.84
2022-08-01T02:14:28.806Z,1006.83
2022-08-01T02:15:28.806Z,1006.82
2022-08-01T02:16:29.743Z,1006.78
2022-08-01T02:17:28.766Z,1006.77
2022-08-01T02:18:28.753Z,1006.80
2022-08-01T02:19:28.743Z,1006.80
2022-08-01T02:20:28.729Z,1006.77
2022-08-01T02:21:28.739Z,1006.83
2022-08-01T02:22:29.246Z,1006.83
2022-08-01T02:23:28.697Z,1006.82
2022-08-01T02:24:30.426Z,1006.79
2022-08-01T02:25:28.677Z,1006.78
2022-08-01T02:26:29.252Z,1006.83
2022-08-01T02:27:28.747Z,1006.81
2022-08-01T02:28:28.666Z,1006.84
2022-08-01T02:29:28.708Z,1006.84
2022-08-01T02:30:28.632Z,1006.81
2022-08-01T02:31:28.606Z,1006.78
2022-08-01T02:32:28.596Z,1006.78
2022-08-01T02:33:28.591Z,1006.76
2022-08-01T02:34:28.591Z,1006.82
2022-08-01T02:35:28.971Z,1006.76
2022-08-01T02:36:32.831Z,1006.79
2022-08-01T02:37:28.770Z,1006.76
2022-08-01T02:38:28.783Z,1006.82
2022-08-01T02:39:28.626Z,1006.86
2022-08-01T02:40:28.507Z,1006.86
2022-08-01T02:41:29.219Z,1006.82
2022-08-01T02:42:28.487Z,1006.84
2022-08-01T02:43:28.488Z,1006.87
2022-08-01T02:44:28.467Z,1006.86
2022-08-01T02:45:28.446Z,1006.90
2022-08-01T02:46:28.438Z,1006.86
2022-08-01T02:47:28.427Z,1006.87
2022-08-01T02:48:28.432Z,1006.88
2022-08-01T02:49:28.502Z,1006.82
2022-08-01T02:50:28.397Z,1006.82
2022-08-01T02:51:28.391Z,1006.81
2022-08-01T02:52:28.373Z,1006.80
2022-08-01T02:53:44.283Z,1006.81
2022-08-01T02:54:29.347Z,1006.89
2022-08-01T02:55:28.341Z,1006.83
2022-08-01T02:56:28.329Z,1006.82
2022-08-01T02:57:39.479Z,1006.80
2022-08-01T02:58:29.559Z,1006.83
2022-08-01T02:59:28.293Z,1006.86
2022-08-01T03:00:28.287Z,1006.86
2022-08-01T03:01:29.271Z,1006.88
2022-08-01T03:02:28.264Z,1006.84
2022-08-01T03:03:28.264Z,1006.92
2022-08-01T03:04:28.241Z,1006.86
2022-08-01T03:05:28.225Z,1006.85
2022-08-01T03:06:28.218Z,1006.83
2022-08-01T03:07:34.268Z,1006.82
2022-08-01T03:08:29.232Z,1006.86
2022-08-01T03:09:28.763Z,1006.85
2022-08-01T03:10:28.173Z,1006.86
2022-08-01T03:11:28.157Z,1006.86
2022-08-01T03:12:28.152Z,1006.84
2022-08-01T03:13:28.177Z,1006.84
2022-08-01T03:14:28.129Z,1006.90
2022-08-01T03:15:28.726Z,1006.89
2022-08-01T03:16:28.106Z,1006.85
2022-08-01T03:17:28.112Z,1006.85
2022-08-01T03:18:28.084Z,1006.83
2022-08-01T03:19:28.071Z,1006.90
2022-08-01T03:20:28.063Z,1006.93
2022-08-01T03:21:28.049Z,1006.90
2022-08-01T03:22:28.061Z,1006.90
2022-08-01T03:23:37.815Z,1006.90
2022-08-01T03:24:29.014Z,1006.87
2022-08-01T03:25:28.005Z,1006.88
2022-08-01T03:26:28.300Z,1006.86
2022-08-01T03:27:28.003Z,1006.91
2022-08-01T03:28:29.779Z,1006.91
2022-08-01T03:29:27.960Z,1006.92
2022-08-01T03:30:28.771Z,1006.92
2022-08-01T03:31:27.937Z,1006.95
2022-08-01T03:32:27.975Z,1006.97
2022-08-01T03:33:27.920Z,1006.96
2022-08-01T03:34:27.911Z,1006.96
2022-08-01T03:35:27.894Z,1006.99
2022-08-01T03:36:27.898Z,1007.01
2022-08-01T03:37:27.875Z,1006.97
2022-08-01T03:38:27.863Z,1006.99
2022-08-01T03:39:27.849Z,1007.01
2022-08-01T03:40:27.858Z,1006.98
2022-08-01T03:41:27.827Z,1007.01
2022-08-01T03:42:27.819Z,1006.98
2022-08-01T03:43:28.777Z,1007.01
2022-08-01T03:44:27.810Z,1007.01
2022-08-01T03:45:27.785Z,1007.02
2022-08-01T03:46:27.788Z,1007.06
2022-08-01T03:47:27.815Z,1007.03
2022-08-01T03:48:27.754Z,1007.02
2022-08-01T03:49:27.937Z,1007.02
2022-08-01T03:50:27.728Z,1007.03
2022-08-01T03:51:27.715Z,1007.08
2022-08-01T03:52:27.719Z,1007.02
2022-08-01T03:53:27.726Z,1007.06
2022-08-01T03:54:27.684Z,1007.07
2022-08-01T03:55:27.672Z,1007.06
2022-08-01T03:56:27.663Z,1007.08
2022-08-01T03:57:36.356Z,1007.07
2022-08-01T03:58:28.640Z,1007.08
2022-08-01T03:59:27.644Z,1007.08
2022-08-01T04:00:27.617Z,1007.05
2022-08-01T04:01:27.667Z,1007.06
2022-08-01T04:02:27.614Z,1007.02
2022-08-01T04:03:27.595Z,1007.10
2022-08-01T04:04:27.574Z,1007.05
2022-08-01T04:05:27.561Z,1007.04
2022-08-01T04:06:27.593Z,1007.07
2022-08-01T04:07:27.537Z,1007.04
2022-08-01T04:08:30.158Z,1007.03
2022-08-01T04:09:27.517Z,1007.05
2022-08-01T04:10:27.508Z,1007.07
2022-08-01T04:11:27.508Z,1007.08
2022-08-01T04:12:27.480Z,1007.08
2022-08-01T04:13:36.737Z,1007.08
2022-08-01T04:14:28.458Z,1007.05
2022-08-01T04:15:27.473Z,1007.07
2022-08-01T04:16:27.452Z,1007.03
2022-08-01T04:17:27.435Z,1007.09
2022-08-01T04:18:27.413Z,1007.07
2022-08-01T04:19:27.404Z,1007.06
2022-08-01T04:20:27.394Z,1007.09
2022-08-01T04:21:27.394Z,1007.09
2022-08-01T04:22:27.370Z,1007.07
2022-08-01T04:23:27.603Z,1007.09
2022-08-01T04:24:27.358Z,1007.07
2022-08-01T04:25:27.509Z,1007.10
2022-08-01T04:26:27.323Z,1007.11
2022-08-01T04:27:50.170Z,1007.09
2022-08-01T04:28:28.298Z,1007.10
2022-08-01T04:29:27.303Z,1007.07
2022-08-01T04:30:27.285Z,1007.09
2022-08-01T04:31:27.267Z,1007.09
2022-08-01T04:32:27.262Z,1007.10
2022-08-01T04:33:27.243Z,1007.10
2022-08-01T04:34:27.387Z,1007.12
2022-08-01T04:36:04.056Z,1007.15
2022-08-01T04:36:28.210Z,1007.13
2022-08-01T04:37:27.198Z,1007.15
2022-08-01T04:38:27.196Z,1007.12
2022-08-01T04:39:27.176Z,1007.12
2022-08-01T04:40:27.362Z,1007.15
2022-08-01T04:41:27.152Z,1007.19
2022-08-01T04:42:30.137Z,1007.21
2022-08-01T04:43:28.128Z,1007.18
2022-08-01T04:44:30.998Z,1007.19
2022-08-01T04:45:28.119Z,1007.19
2022-08-01T04:46:27.094Z,1007.19
2022-08-01T04:47:27.081Z,1007.18
2022-08-01T04:48:27.071Z,1007.21
2022-08-01T04:49:27.102Z,1007.22
2022-08-01T04:50:27.062Z,1007.24
2022-08-01T04:51:27.041Z,1007.22
2022-08-01T04:52:27.028Z,1007.27
2022-08-01T04:53:27.228Z,1007.21
2022-08-01T04:54:27.022Z,1007.22
2022-08-01T04:55:27.010Z,1007.27
2022-08-01T04:56:26.979Z,1007.23
2022-08-01T04:57:26.970Z,1007.24
2022-08-01T04:58:26.958Z,1007.21
2022-08-01T04:59:27.800Z,1007.23
2022-08-01T05:00:26.948Z,1007.25
2022-08-01T05:01:26.971Z,1007.23
2022-08-01T05:02:26.913Z,1007.26
2022-08-01T05:03:26.903Z,1007.26
2022-08-01T05:04:26.893Z,1007.30
2022-08-01T05:05:26.893Z,1007.28
2022-08-01T05:06:26.865Z,1007.33
2022-08-01T05:07:26.856Z,1007.35
2022-08-01T05:08:26.842Z,1007.31
2022-08-01T05:09:30.845Z,1007.28
2022-08-01T05:10:26.941Z,1007.33
2022-08-01T05:11:26.811Z,1007.35
2022-08-01T05:12:26.796Z,1007.34
2022-08-01T05:13:26.798Z,1007.35
2022-08-01T05:14:26.776Z,1007.38
2022-08-01T05:15:26.778Z,1007.38
2022-08-01T05:16:26.765Z,1007.36
2022-08-01T05:17:26.741Z,1007.40
2022-08-01T05:18:28.437Z,1007.38
2022-08-01T05:19:26.720Z,1007.37
2022-08-01T05:20:26.723Z,1007.38
2022-08-01T05:21:26.697Z,1007.40
2022-08-01T05:22:26.686Z,1007.42
2022-08-01T05:23:41.957Z,1007.44
2022-08-01T05:24:27.664Z,1007.39
2022-08-01T05:25:55.887Z,1007.44
2022-08-01T05:26:27.639Z,1007.43
2022-08-01T05:27:27.308Z,1007.45
2022-08-01T05:28:26.626Z,1007.41
2022-08-01T05:29:26.609Z,1007.35
2022-08-01T05:30:26.614Z,1007.41
2022-08-01T05:31:26.586Z,1007.40
2022-08-01T05:32:26.572Z,1007.37
2022-08-01T05:33:26.576Z,1007.32
2022-08-01T05:34:26.551Z,1007.34
2022-08-01T05:35:48.392Z,1007.37
2022-08-01T05:36:27.525Z,1007.38
2022-08-01T05:37:26.519Z,1007.41
2022-08-01T05:38:26.502Z,1007.42
2022-08-01T05:39:26.499Z,1007.38
2022-08-01T05:40:26.500Z,1007.32
2022-08-01T05:41:26.472Z,1007.36
2022-08-01T05:42:26.460Z,1007.37
2022-08-01T05:43:28.922Z,1007.38
2022-08-01T05:44:26.437Z,1007.37
2022-08-01T05:45:26.440Z,1007.40
2022-08-01T05:46:27.574Z,1007.41
2022-08-01T05:47:26.402Z,1007.40
2022-08-01T05:48:26.389Z,1007.42
2022-08-01T05:49:26.462Z,1007.37
2022-08-01T05:50:26.363Z,1007.39
2022-08-01T05:51:26.376Z,1007.38
2022-08-01T05:52:27.282Z,1007.40
2022-08-01T05:53:26.338Z,1007.40
2022-08-01T05:54:26.343Z,1007.40
2022-08-01T05:55:26.313Z,1007.43
2022-08-01T05:56:30.482Z,1007.43
2022-08-01T05:57:27.288Z,1007.43
2022-08-01T05:58:26.275Z,1007.42
2022-08-01T05:59:26.266Z,1007.43
2022-08-01T06:00:26.254Z,1007.48
2022-08-01T06:01:26.245Z,1007.45
2022-08-01T06:02:26.276Z,1007.45
2022-08-01T06:03:26.238Z,1007.49
2022-08-01T06:04:26.263Z,1007.50
2022-08-01T06:05:26.203Z,1007.50
2022-08-01T06:06:26.188Z,1007.51
2022-08-01T06:07:26.195Z,1007.56
2022-08-01T06:08:26.160Z,1007.58
2022-08-01T06:09:26.287Z,1007.55
2022-08-01T06:10:26.142Z,1007.56
2022-08-01T06:11:26.139Z,1007.53
2022-08-01T06:12:26.135Z,1007.53
2022-08-01T06:13:26.116Z,1007.58
2022-08-01T06:14:26.098Z,1007.51
2022-08-01T06:15:26.097Z,1007.50
2022-08-01T06:16:26.096Z,1007.54
2022-08-01T06:17:26.067Z,1007.54
2022-08-01T06:18:26.058Z,1007.56
2022-08-01T06:19:26.062Z,1007.57
2022-08-01T06:20:26.042Z,1007.57
2022-08-01T06:21:26.021Z,1007.61
2022-08-01T06:22:26.009Z,1007.59
2022-08-01T06:23:31.910Z,1007.60
2022-08-01T06:24:26.991Z,1007.61
2022-08-01T06:25:25.978Z,1007.60
2022-08-01T06:26:26.794Z,1007.61
2022-08-01T06:27:25.956Z,1007.62
2022-08-01T06:28:25.967Z,1007.61
2022-08-01T06:29:25.948Z,1007.61
2022-08-01T06:30:26.034Z,1007.61
2022-08-01T06:31:29.309Z,1007.59
2022-08-01T06:32:27.976Z,1007.62
2022-08-01T06:33:25.894Z,1007.66
2022-08-01T06:34:25.876Z,1007.63
2022-08-01T06:35:25.869Z,1007.68
2022-08-01T06:36:25.874Z,1007.66
2022-08-01T06:37:25.848Z,1007.69
2022-08-01T06:38:25.833Z,1007.72
2022-08-01T06:39:26.792Z,1007.66
2022-08-01T06:40:25.824Z,1007.65
2022-08-01T06:41:25.801Z,1007.70
2022-08-01T06:42:25.791Z,1007.67
2022-08-01T06:43:26.338Z,1007.69
2022-08-01T06:44:25.763Z,1007.67
2022-08-01T06:45:26.797Z,1007.68
2022-08-01T06:46:30.197Z,1007.67
2022-08-01T06:47:26.731Z,1007.71
2022-08-01T06:48:25.732Z,1007.66
2022-08-01T06:49:25.754Z,1007.65
2022-08-01T06:50:25.741Z,1007.70
2022-08-01T06:51:25.687Z,1007.73
2022-08-01T06:52:25.677Z,1007.73
2022-08-01T06:53:25.677Z,1007.77
2022-08-01T06:54:25.656Z,1007.71
2022-08-01T06:55:25.658Z,1007.70
2022-08-01T06:56:25.663Z,1007.69
2022-08-01T06:57:25.637Z,1007.67
2022-08-01T06:58:31.715Z,1007.67
2022-08-01T06:59:26.598Z,1007.70
2022-08-01T07:00:25.589Z,1007.71
2022-08-01T07:01:25.701Z,1007.72
2022-08-01T07:02:26.337Z,1007.76
2022-08-01T07:03:25.554Z,1007.68
2022-08-01T07:04:25.546Z,1007.77
2022-08-01T07:05:25.537Z,1007.74
2022-08-01T07:06:25.541Z,1007.70
2022-08-01T07:07:25.512Z,1007.67
2022-08-01T07:08:25.497Z,1007.77
2022-08-01T07:09:25.489Z,1007.78
2022-08-01T07:10:25.476Z,1007.75
2022-08-01T07:11:25.483Z,1007.74
2022-08-01T07:12:25.460Z,1007.74
2022-08-01T07:13:25.445Z,1007.72
2022-08-01T07:14:26.427Z,1007.72
2022-08-01T07:15:25.481Z,1007.75
2022-08-01T07:16:25.420Z,1007.77
2022-08-01T07:17:25.396Z,1007.74
2022-08-01T07:18:26.444Z,1007.73
2022-08-01T07:19:25.379Z,1007.79
2022-08-01T07:20:25.365Z,1007.84
2022-08-01T07:21:39.689Z,1007.84
2022-08-01T07:22:26.349Z,1007.79
2022-08-01T07:23:33.912Z,1007.78
2022-08-01T07:24:26.947Z,1007.78
2022-08-01T07:25:25.309Z,1007.76
2022-08-01T07:26:25.304Z,1007.76
2022-08-01T07:27:26.044Z,1007.79
2022-08-01T07:28:25.278Z,1007.81
2022-08-01T07:29:25.266Z,1007.83
2022-08-01T07:30:25.315Z,1007.86
2022-08-01T07:31:27.414Z,1007.80
2022-08-01T07:32:26.231Z,1007.87
2022-08-01T07:33:25.229Z,1007.91
2022-08-01T07:34:25.211Z,1007.91
2022-08-01T07:35:25.203Z,1007.90
2022-08-01T07:36:25.200Z,1007.92
2022-08-01T07:37:45.572Z,1007.85
2022-08-01T07:38:26.266Z,1007.82
2022-08-01T07:39:25.164Z,1007.84
2022-08-01T07:40:25.142Z,1007.87
2022-08-01T07:41:53.540Z,1007.94
2022-08-01T07:42:26.119Z,1007.89
2022-08-01T07:43:25.110Z,1007.87
2022-08-01T07:44:25.100Z,1007.88
2022-08-01T07:45:25.113Z,1007.88
2022-08-01T07:46:25.076Z,1007.90
2022-08-01T07:47:25.066Z,1007.90
2022-08-01T07:48:25.057Z,1007.87
2022-08-01T07:49:25.155Z,1007.92
2022-08-01T07:50:25.054Z,1008.00
2022-08-01T07:51:25.214Z,1007.96
2022-08-01T07:52:25.012Z,1008.02
2022-08-01T07:53:25.004Z,1008.06
2022-08-01T07:54:33.112Z,1008.04
2022-08-01T07:55:26.017Z,1008.07
2022-08-01T07:56:24.965Z,1008.10
2022-08-01T07:57:25.260Z,1008.02
2022-08-01T07:58:24.945Z,1008.07
2022-08-01T07:59:26.244Z,1008.13
2022-08-01T08:00:24.928Z,1008.09
2022-08-01T08:01:24.966Z,1008.12
2022-08-01T08:02:24.978Z,1008.13
2022-08-01T08:03:24.892Z,1008.11
2022-08-01T08:04:24.891Z,1008.13
2022-08-01T08:05:58.097Z,1008.16
2022-08-01T08:06:25.854Z,1008.12
2022-08-01T08:07:24.852Z,1008.11
2022-08-01T08:08:24.886Z,1008.09
2022-08-01T08:09:24.830Z,1008.06
2022-08-01T08:10:31.875Z,1008.06
2022-08-01T08:11:24.803Z,1008.09
2022-08-01T08:12:29.650Z,1008.07
2022-08-01T08:13:24.794Z,1008.07
2022-08-01T08:14:32.132Z,1008.08
2022-08-01T08:15:25.755Z,1008.08
2022-08-01T08:16:24.747Z,1008.13
2022-08-01T08:17:24.758Z,1008.13
2022-08-01T08:18:24.724Z,1008.12
2022-08-01T08:19:37.793Z,1008.11
2022-08-01T08:20:25.698Z,1008.11
2022-08-01T08:21:24.697Z,1008.11
2022-08-01T08:22:24.705Z,1008.15
2022-08-01T08:23:43.015Z,1008.12
2022-08-01T08:24:26.146Z,1008.12
2022-08-01T08:25:26.821Z,1008.14
2022-08-01T08:26:24.651Z,1008.18
2022-08-01T08:27:24.622Z,1008.18
2022-08-01T08:28:28.097Z,1008.15
2022-08-01T08:29:24.865Z,1008.23
2022-08-01T08:30:24.595Z,1008.22
2022-08-01T08:31:50.703Z,1008.17
2022-08-01T08:32:25.571Z,1008.22
2022-08-01T08:33:24.571Z,1008.21
2022-08-01T08:34:24.560Z,1008.18
2022-08-01T08:35:50.440Z,1008.18
2022-08-01T08:36:31.206Z,1008.19
2022-08-01T08:37:25.515Z,1008.18
2022-08-01T08:38:26.917Z,1008.22
2022-08-01T08:39:24.490Z,1008.23
2022-08-01T08:40:24.482Z,1008.27
2022-08-01T08:41:24.482Z,1008.22
2022-08-01T08:42:24.458Z,1008.24
2022-08-01T08:43:24.446Z,1008.29
2022-08-01T08:44:24.433Z,1008.27
2022-08-01T08:45:56.119Z,1008.28
2022-08-01T08:46:28.167Z,1008.26
2022-08-01T08:47:24.403Z,1008.32
2022-08-01T08:48:27.688Z,1008.28
2022-08-01T08:49:24.506Z,1008.32
2022-08-01T08:50:24.373Z,1008.30
2022-08-01T08:51:24.371Z,1008.28
2022-08-01T08:52:24.345Z,1008.32
2022-08-01T08:53:24.337Z,1008.34
2022-08-01T08:54:29.541Z,1008.39
2022-08-01T08:55:25.308Z,1008.34
2022-08-01T08:56:24.338Z,1008.35
2022-08-01T08:57:24.292Z,1008.36
2022-08-01T08:58:30.430Z,1008.30
2022-08-01T08:59:25.269Z,1008.31
2022-08-01T09:00:24.259Z,1008.31
2022-08-01T09:01:24.273Z,1008.22
2022-08-01T09:02:24.239Z,1008.33
2022-08-01T09:03:24.326Z,1008.32
2022-08-01T09:04:26.179Z,1008.28
2022-08-01T09:05:24.303Z,1008.34
2022-08-01T09:06:24.193Z,1008.36
2022-08-01T09:07:24.231Z,1008.36
2022-08-01T09:08:24.173Z,1008.34
2022-08-01T09:09:24.161Z,1008.40
2022-08-01T09:10:24.149Z,1008.36
2022-08-01T09:11:24.150Z,1008.39
2022-08-01T09:12:24.128Z,1008.43
2022-08-01T09:13:24.117Z,1008.48
2022-08-01T09:14:24.109Z,1008.43
2022-08-01T09:15:24.099Z,1008.41
2022-08-01T09:16:24.105Z,1008.40
2022-08-01T09:17:24.070Z,1008.42
2022-08-01T09:18:24.170Z,1008.44
2022-08-01T09:19:39.864Z,1008.37
2022-08-01T09:20:25.043Z,1008.42
2022-08-01T09:21:24.050Z,1008.47
2022-08-01T09:22:24.327Z,1008.45
2022-08-01T09:23:24.109Z,1008.45
2022-08-01T09:24:30.379Z,1008.43
2022-08-01T09:25:29.882Z,1008.47
2022-08-01T09:26:25.094Z,1008.44
2022-08-01T09:27:23.981Z,1008.44
2022-08-01T09:28:23.971Z,1008.46
2022-08-01T09:29:37.257Z,1008.43
2022-08-01T09:30:26.096Z,1008.47
2022-08-01T09:31:23.962Z,1008.48
2022-08-01T09:32:25.877Z,1008.54
2022-08-01T09:33:23.899Z,1008.56
2022-08-01T09:34:23.889Z,1008.53
2022-08-01T09:35:23.877Z,1008.58
2022-08-01T09:36:23.865Z,1008.53
2022-08-01T09:37:24.094Z,1008.63
2022-08-01T09:38:23.849Z,1008.56
2022-08-01T09:39:23.842Z,1008.62
2022-08-01T09:40:23.820Z,1008.62
2022-08-01T09:41:23.826Z,1008.58
2022-08-01T09:42:29.087Z,1008.65
2022-08-01T09:43:23.788Z,1008.70
2022-08-01T09:44:39.866Z,1008.68
2022-08-01T09:45:24.790Z,1008.67
2022-08-01T09:46:23.771Z,1008.60
2022-08-01T09:47:25.438Z,1008.62
2022-08-01T09:48:28.512Z,1008.66
2022-08-01T09:49:24.777Z,1008.64
2022-08-01T09:50:23.712Z,1008.65
2022-08-01T09:51:59.371Z,1008.62
2022-08-01T09:52:26.142Z,1008.64
2022-08-01T09:53:29.905Z,1008.64
2022-08-01T09:54:24.667Z,1008.62
2022-08-01T09:55:23.655Z,1008.68
2022-08-01T09:56:23.772Z,1008.71
2022-08-01T09:57:23.647Z,1008.69
2022-08-01T09:58:23.628Z,1008.71
2022-08-01T09:59:28.820Z,1008.76
2022-08-01T10:00:44.172Z,1008.74
2022-08-01T10:01:24.602Z,1008.76
2022-08-01T10:02:23.583Z,1008.78
2022-08-01T10:03:24.032Z,1008.78
2022-08-01T10:04:23.572Z,1008.82
2022-08-01T10:05:23.546Z,1008.80
2022-08-01T10:06:24.706Z,1008.80
2022-08-01T10:07:27.680Z,1008.80
2022-08-01T10:08:24.517Z,1008.85
2022-08-01T10:09:23.518Z,1008.85
2022-08-01T10:10:23.505Z,1008.84
2022-08-01T10:11:35.796Z,1008.85
2022-08-01T10:12:24.467Z,1008.89
2022-08-01T10:13:23.474Z,1008.90
2022-08-01T10:14:23.449Z,1008.91
2022-08-01T10:15:23.668Z,1008.94
2022-08-01T10:16:24.424Z,1008.95
2022-08-01T10:17:23.412Z,1008.90
2022-08-01T10:18:26.311Z,1008.92
2022-08-01T10:19:23.390Z,1008.94
2022-08-01T10:20:30.498Z,1008.96
2022-08-01T10:21:56.222Z,1008.93
2022-08-01T10:22:24.356Z,1008.92
2022-08-01T10:23:23.361Z,1008.93
2022-08-01T10:24:24.350Z,1008.95
2022-08-01T10:25:42.164Z,1008.96
2022-08-01T10:26:24.312Z,1008.97
2022-08-01T10:27:33.487Z,1008.97
2022-08-01T10:28:24.455Z,1008.96
2022-08-01T10:29:45.353Z,1008.96
2022-08-01T10:30:24.556Z,1008.92
2022-08-01T10:31:30.903Z,1008.98
2022-08-01T10:32:24.291Z,1008.97
2022-08-01T10:33:50.690Z,1008.96
2022-08-01T10:34:24.244Z,1008.96
2022-08-01T10:35:45.724Z,1008.96
2022-08-01T10:36:25.457Z,1008.97
2022-08-01T10:37:23.194Z,1009.02
2022-08-01T10:38:23.198Z,1008.95
2022-08-01T10:39:23.170Z,1009.00
2022-08-01T10:40:31.490Z,1009.03
2022-08-01T10:41:24.161Z,1009.02
2022-08-01T10:42:23.138Z,1009.00
2022-08-01T10:43:23.140Z,1009.00
2022-08-01T10:44:23.117Z,1009.02
2022-08-01T10:45:23.142Z,1009.02
2022-08-01T10:46:23.096Z,1009.00
2022-08-01T10:47:27.043Z,1009.07
2022-08-01T10:48:24.550Z,1009.05
2022-08-01T10:49:23.136Z,1009.06
2022-08-01T10:50:25.897Z,1009.07
2022-08-01T10:51:51.209Z,1009.10
2022-08-01T10:52:24.031Z,1009.04
2022-08-01T10:53:30.850Z,1009.07
2022-08-01T10:54:25.720Z,1009.01
2022-08-01T10:55:22.993Z,1009.06
2022-08-01T10:56:27.028Z,1009.03
2022-08-01T10:57:23.326Z,1009.00
2022-08-01T10:58:22.973Z,1009.05
2022-08-01T10:59:49.474Z,1009.00
2022-08-01T11:00:23.959Z,1009.05
2022-08-01T11:01:23.053Z,1009.02
2022-08-01T11:02:22.970Z,1009.03
2022-08-01T11:03:41.436Z,1009.04
2022-08-01T11:04:23.915Z,1009.05
2022-08-01T11:05:23.971Z,1009.06
2022-08-01T11:06:22.881Z,1009.09
2022-08-01T11:07:25.760Z,1009.07
2022-08-01T11:08:22.854Z,1009.07
2022-08-01T11:09:22.841Z,1009.06
2022-08-01T11:10:24.245Z,1009.11
2022-08-01T11:11:22.820Z,1009.13
2022-08-01T11:12:24.488Z,1009.12
2022-08-01T11:13:22.823Z,1009.17
2022-08-01T11:14:26.561Z,1009.16
2022-08-01T11:15:29.594Z,1009.16
2022-08-01T11:16:24.348Z,1009.18
2022-08-01T11:17:22.752Z,1009.17
2022-08-01T11:18:27.323Z,1009.17
2022-08-01T11:19:23.779Z,1009.17
2022-08-01T11:20:23.643Z,1009.17
2022-08-01T11:21:58.645Z,1009.22
2022-08-01T11:22:25.792Z,1009.19
2022-08-01T11:23:23.602Z,1009.18
2022-08-01T11:24:22.678Z,1009.21
2022-08-01T11:25:58.325Z,1009.18
2022-08-01T11:26:28.935Z,1009.21
2022-08-01T11:27:23.979Z,1009.24
2022-08-01T11:28:30.061Z,1009.18
2022-08-01T11:29:23.620Z,1009.22
2022-08-01T11:30:22.611Z,1009.21
2022-08-01T11:31:22.620Z,1009.27
2022-08-01T11:32:22.655Z,1009.27
2022-08-01T11:33:22.580Z,1009.23
2022-08-01T11:34:22.570Z,1009.30
2022-08-01T11:35:22.556Z,1009.27
2022-08-01T11:36:55.395Z,1009.30
2022-08-01T11:37:23.548Z,1009.35
2022-08-01T11:38:22.536Z,1009.38
2022-08-01T11:39:22.528Z,1009.43
2022-08-01T11:40:22.787Z,1009.45
2022-08-01T11:41:37.350Z,1009.47
2022-08-01T11:42:23.479Z,1009.47
2022-08-01T11:43:22.481Z,1009.45
2022-08-01T11:44:24.885Z,1009.47
2022-08-01T11:45:22.457Z,1009.53
2022-08-01T11:46:22.444Z,1009.55
2022-08-01T11:47:22.468Z,1009.55
2022-08-01T11:48:23.410Z,1009.57
2022-08-01T11:49:22.520Z,1009.57
2022-08-01T11:50:22.393Z,1009.60
2022-08-01T11:51:25.734Z,1009.59
2022-08-01T11:52:22.370Z,1009.61
2022-08-01T11:53:22.376Z,1009.62
2022-08-01T11:54:35.434Z,1009.64
2022-08-01T11:55:23.337Z,1009.62
2022-08-01T11:56:23.328Z,1009.58
2022-08-01T11:57:23.579Z,1009.60
2022-08-01T11:58:27.764Z,1009.60
2022-08-01T11:59:23.288Z,1009.59
2022-08-01T12:00:22.565Z,1009.65
2022-08-01T12:01:22.289Z,1009.66
2022-08-01T12:02:30.237Z,1009.67
2022-08-01T12:03:26.704Z,1009.64
2022-08-01T12:04:23.307Z,1009.60
2022-08-01T12:05:24.816Z,1009.61